Time;durP1;ratioP1;P1;durP2;ratioP2;P2;SDS_P1;SDS_P2;PMS_P1;PMS_P2;Temp;Humidity;BMP_temperature;BMP_pressure;BME280_temperature;BME280_humidity;BME280_pressure;Samples;Min_cycle;Max_cycle;Signal;HPM_P1;HPM_P2
2022/01/04 04:01:06;;;;;;;2.03;0.80;;;11.40;84.00;;;;;;5829714;22;20497;-75
2022/01/04 04:03:32;;;;;;;2.10;0.80;;;11.40;84.40;;;;;;5035073;28;20439;-75
2022/01/04 04:05:59;;;;;;;2.10;0.80;;;11.40;84.30;;;;;;5035043;28;20497;-75
2022/01/04 04:08:27;;;;;;;2.37;0.80;;;11.50;83.90;;;;;;5034971;28;20489;-75
2022/01/04 04:10:53;;;;;;;2.03;0.80;;;11.40;84.00;;;;;;5034355;28;20460;-75
2022/01/04 04:13:20;;;;;;;2.10;0.80;;;11.40;84.30;;;;;;5034836;28;20489;-75
2022/01/04 04:15:47;;;;;;;2.20;0.80;;;11.40;84.60;;;;;;5076348;22;20506;-79
2022/01/04 04:18:16;;;;;;;2.20;0.80;;;11.30;84.60;;;;;;5059026;28;20430;-79
2022/01/04 04:20:43;;;;;;;2.30;0.90;;;11.30;85.00;;;;;;5059817;28;20525;-80
2022/01/04 04:23:11;;;;;;;1.97;0.73;;;11.40;85.30;;;;;;5059107;28;20470;-79
2022/01/04 04:25:38;;;;;;;2.10;0.80;;;11.30;85.20;;;;;;5059580;28;20481;-80
2022/01/04 04:28:05;;;;;;;1.97;0.70;;;11.40;85.20;;;;;;5058435;28;20446;-80
2022/01/04 04:30:32;;;;;;;2.10;0.80;;;11.40;85.50;;;;;;5057419;28;20488;-80
2022/01/04 04:32:59;;;;;;;2.07;0.60;;;11.40;85.20;;;;;;5057905;28;20446;-79
2022/01/04 04:35:27;;;;;;;2.00;0.80;;;11.40;85.70;;;;;;5057609;28;20829;-79
2022/01/04 04:37:53;;;;;;;2.10;0.70;;;11.50;85.90;;;;;;5057718;28;20450;-79
2022/01/04 04:40:20;;;;;;;2.20;0.90;;;11.50;85.40;;;;;;5057424;28;20504;-79
2022/01/04 04:42:47;;;;;;;2.10;0.80;;;11.50;85.70;;;;;;5058831;28;20461;-79
2022/01/04 04:45:14;;;;;;;2.17;0.80;;;11.40;86.40;;;;;;5061577;28;20470;-80
2022/01/04 04:47:40;;;;;;;2.10;0.70;;;11.40;86.30;;;;;;5061131;28;20937;-79
2022/01/04 04:50:08;;;;;;;2.20;0.73;;;11.40;86.40;;;;;;5061560;28;20470;-79
2022/01/04 04:52:36;;;;;;;2.10;0.80;;;11.50;86.50;;;;;;5061179;28;20469;-79
2022/01/04 04:55:05;;;;;;;2.10;0.70;;;11.50;86.20;;;;;;5058222;28;20463;-79
2022/01/04 04:57:31;;;;;;;2.00;0.70;;;11.40;86.70;;;;;;5057974;28;20443;-79
2022/01/04 04:59:58;;;;;;;2.57;0.97;;;11.30;87.20;;;;;;5058022;28;20446;-79
2022/01/04 05:02:25;;;;;;;2.07;0.70;;;11.30;87.40;;;;;;5057677;28;20482;-79
2022/01/04 05:04:52;;;;;;;2.00;0.70;;;11.30;87.20;;;;;;5056956;28;20883;-79
2022/01/04 05:07:18;;;;;;;2.20;0.80;;;11.40;87.40;;;;;;5058258;28;20458;-79
2022/01/04 05:09:46;;;;;;;2.20;0.87;;;11.30;87.50;;;;;;5058221;28;20469;-79
2022/01/04 05:12:13;;;;;;;1.90;0.70;;;11.30;87.90;;;;;;5057521;28;20887;-80
2022/01/04 05:14:45;;;;;;;2.03;0.70;;;11.10;88.20;;;;;;5057671;28;20475;-79
2022/01/04 05:17:13;;;;;;;2.10;0.80;;;11.10;88.70;;;;;;5058564;28;20800;-79
2022/01/04 05:19:40;;;;;;;2.00;0.70;;;11.10;88.80;;;;;;5057451;28;20537;-79
2022/01/04 05:22:07;;;;;;;2.60;0.80;;;11.00;89.20;;;;;;5057117;28;20521;-79
2022/01/04 05:24:35;;;;;;;2.33;0.97;;;11.10;89.50;;;;;;5057493;28;20563;-79
2022/01/04 05:27:03;;;;;;;2.60;0.77;;;11.10;89.10;;;;;;5057718;28;20492;-79
2022/01/04 05:29:30;;;;;;;2.03;0.70;;;10.90;89.60;;;;;;5061483;28;20937;-79
2022/01/04 05:31:57;;;;;;;2.00;0.70;;;10.80;90.60;;;;;;5058762;28;20450;-80
2022/01/04 05:34:25;;;;;;;2.00;0.70;;;11.00;90.80;;;;;;5057769;28;20466;-79
2022/01/04 05:36:52;;;;;;;2.10;0.80;;;10.90;90.80;;;;;;5056975;28;20446;-79
2022/01/04 05:39:18;;;;;;;2.20;1.00;;;10.90;91.00;;;;;;5056892;28;20937;-80
2022/01/04 05:41:45;;;;;;;2.00;0.70;;;11.00;91.10;;;;;;5057731;28;20608;-80
2022/01/04 05:44:14;;;;;;;2.50;0.90;;;11.00;91.20;;;;;;5057925;28;20532;-79
2022/01/04 05:46:40;;;;;;;2.20;0.80;;;11.00;91.20;;;;;;5057684;28;20512;-79
2022/01/04 05:49:07;;;;;;;2.10;0.83;;;10.90;91.80;;;;;;5057914;28;20454;-79
2022/01/04 05:51:34;;;;;;;2.03;0.73;;;10.90;91.90;;;;;;5063159;28;20461;-79
2022/01/04 05:54:00;;;;;;;2.30;0.80;;;10.90;92.00;;;;;;5065631;28;20860;-79
2022/01/04 05:56:27;;;;;;;2.03;0.73;;;10.80;92.40;;;;;;5067513;28;20849;-79
2022/01/04 05:58:54;;;;;;;2.00;0.70;;;10.70;92.80;;;;;;5055321;28;20446;-79
2022/01/04 06:01:22;;;;;;;2.60;0.70;;;10.70;93.30;;;;;;5054696;28;20992;-79
2022/01/04 06:03:51;;;;;;;2.20;0.80;;;10.70;93.20;;;;;;5055040;28;20481;-79
2022/01/04 06:06:17;;;;;;;2.40;0.77;;;10.80;93.30;;;;;;5056050;28;20490;-79
2022/01/04 06:08:45;;;;;;;3.13;0.80;;;10.80;93.30;;;;;;5055372;28;20450;-79
2022/01/04 06:11:29;;;;;;;2.10;0.87;;;10.90;93.10;;;;;;5055517;28;20442;-79
2022/01/04 06:16:42;;;;;;;2.00;0.70;;;10.80;92.90;;;;;;5054891;28;20476;-79
2022/01/04 06:19:08;;;;;;;2.10;0.80;;;10.80;93.60;;;;;;5055338;28;20515;-79
2022/01/04 06:21:35;;;;;;;2.07;0.73;;;10.80;93.50;;;;;;5054965;28;20482;-79
2022/01/04 06:24:02;;;;;;;2.37;0.80;;;10.90;93.30;;;;;;5054107;28;20534;-79
2022/01/04 06:26:28;;;;;;;2.20;0.77;;;10.90;93.20;;;;;;5054163;28;20458;-79
2022/01/04 06:28:55;;;;;;;2.10;0.70;;;10.80;93.50;;;;;;5055006;28;20865;-79
2022/01/04 06:31:22;;;;;;;1.93;0.63;;;10.80;93.80;;;;;;5054786;28;20859;-79
2022/01/04 06:33:50;;;;;;;2.10;0.70;;;10.90;93.70;;;;;;5055187;28;20516;-79
2022/01/04 06:36:17;;;;;;;2.00;0.70;;;10.80;93.50;;;;;;5058163;28;20488;-79
2022/01/04 06:38:44;;;;;;;2.00;0.70;;;10.80;93.50;;;;;;5057666;28;20450;-77
2022/01/04 06:41:11;;;;;;;2.00;0.60;;;10.70;93.80;;;;;;5056580;28;20531;-77
2022/01/04 06:43:37;;;;;;;1.90;0.70;;;10.70;94.10;;;;;;5056390;28;20953;-77
2022/01/04 06:46:04;;;;;;;2.00;0.70;;;10.60;94.30;;;;;;5056686;28;20881;-77
2022/01/04 06:48:30;;;;;;;2.10;0.70;;;10.60;94.70;;;;;;5056214;28;20443;-77
2022/01/04 06:50:58;;;;;;;2.00;0.70;;;10.70;94.50;;;;;;5056501;28;20476;-77
2022/01/04 06:53:25;;;;;;;2.03;0.70;;;10.80;94.20;;;;;;5056306;28;20476;-77
2022/01/04 06:55:53;;;;;;;2.33;0.90;;;10.80;94.30;;;;;;5056473;28;20888;-77
2022/01/04 06:58:20;;;;;;;2.00;0.70;;;10.70;94.40;;;;;;5056224;28;20446;-77
2022/01/04 07:00:46;;;;;;;2.10;0.70;;;10.80;94.50;;;;;;5055913;28;20983;-77
2022/01/04 07:03:13;;;;;;;2.00;0.70;;;10.90;94.30;;;;;;5056104;28;20888;-77
2022/01/04 07:05:40;;;;;;;2.00;0.70;;;10.90;94.00;;;;;;5055795;28;20876;-77
2022/01/04 07:08:08;;;;;;;2.00;0.70;;;10.90;94.00;;;;;;5056240;28;20500;-77
2022/01/04 07:10:35;;;;;;;2.10;0.70;;;10.90;93.90;;;;;;5055986;28;20450;-77
2022/01/04 07:13:01;;;;;;;2.53;0.70;;;10.90;94.00;;;;;;5056160;28;20512;-77
2022/01/04 07:15:28;;;;;;;2.00;0.70;;;10.90;94.10;;;;;;5055455;28;20544;-77
2022/01/04 07:17:55;;;;;;;2.77;0.80;;;10.80;94.30;;;;;;5055875;28;20512;-77
2022/01/04 07:20:21;;;;;;;1.93;0.60;;;10.90;94.70;;;;;;5056377;28;20451;-76
2022/01/04 07:22:48;;;;;;;2.30;0.80;;;10.80;94.50;;;;;;5055588;28;20482;-77
2022/01/04 07:25:16;;;;;;;2.07;0.80;;;10.90;95.00;;;;;;5055724;28;20504;-77
2022/01/04 07:27:43;;;;;;;2.00;0.70;;;10.90;94.70;;;;;;5055455;28;20934;-77
2022/01/04 07:30:10;;;;;;;2.10;0.77;;;10.90;94.50;;;;;;5055316;28;20969;-77
2022/01/04 07:32:37;;;;;;;2.00;0.70;;;10.90;94.30;;;;;;5055187;28;20945;-77
2022/01/04 07:35:04;;;;;;;2.00;0.70;;;11.00;94.40;;;;;;5055093;28;20842;-77
2022/01/04 07:37:31;;;;;;;2.07;0.83;;;11.10;94.30;;;;;;5055537;28;20514;-77
2022/01/04 07:39:58;;;;;;;2.10;0.80;;;11.30;94.10;;;;;;5055664;28;20500;-76
2022/01/04 07:42:26;;;;;;;2.30;0.80;;;11.30;93.20;;;;;;5055246;28;20505;-77
2022/01/04 07:44:52;;;;;;;2.10;0.67;;;11.40;93.30;;;;;;5055776;28;20470;-77
2022/01/04 07:47:19;;;;;;;2.30;0.70;;;11.30;93.30;;;;;;5057129;28;20517;-77
2022/01/04 07:49:46;;;;;;;2.00;0.70;;;11.40;93.40;;;;;;5055421;28;20496;-77
2022/01/04 07:52:12;;;;;;;3.03;1.27;;;11.40;93.20;;;;;;5055613;28;20468;-77
2022/01/04 07:54:41;;;;;;;2.30;0.90;;;11.50;93.00;;;;;;5055978;28;20520;-76
2022/01/04 07:57:08;;;;;;;2.00;0.77;;;11.60;93.10;;;;;;5060291;28;20455;-77
2022/01/04 07:59:36;;;;;;;2.00;0.60;;;11.80;92.60;;;;;;5062731;28;20446;-77
2022/01/04 08:02:03;;;;;;;2.20;0.70;;;11.70;92.10;;;;;;5056795;28;20482;-77
2022/01/04 08:04:29;;;;;;;2.50;0.80;;;11.80;92.40;;;;;;5059115;28;20484;-79
2022/01/04 08:06:56;;;;;;;2.20;0.83;;;11.80;91.90;;;;;;5059103;28;20450;-78
2022/01/04 08:09:23;;;;;;;2.40;0.87;;;11.80;92.00;;;;;;5057372;28;20550;-78
2022/01/04 08:11:51;;;;;;;2.10;0.70;;;11.90;92.00;;;;;;5055262;28;20925;-78
2022/01/04 08:14:18;;;;;;;2.03;0.77;;;12.00;91.60;;;;;;5056337;28;20482;-78
2022/01/04 08:16:46;;;;;;;2.10;0.70;;;12.00;91.60;;;;;;5056705;28;20442;-78
2022/01/04 08:19:12;;;;;;;3.37;0.80;;;12.10;91.40;;;;;;5057472;28;20458;-78
2022/01/04 08:21:39;;;;;;;2.00;0.60;;;12.10;90.50;;;;;;5055761;28;20486;-78
2022/01/04 08:24:06;;;;;;;2.87;0.70;;;12.00;90.60;;;;;;5055710;28;20520;-77
2022/01/04 08:26:33;;;;;;;2.10;0.80;;;12.10;90.90;;;;;;5056028;28;20455;-78
2022/01/04 08:29:00;;;;;;;2.20;0.80;;;12.10;90.70;;;;;;5057425;28;21062;-78
2022/01/04 08:31:27;;;;;;;2.30;0.83;;;12.10;90.40;;;;;;5055632;28;20453;-78
2022/01/04 08:33:55;;;;;;;2.10;0.70;;;12.20;91.10;;;;;;5056116;28;20533;-77
2022/01/04 08:36:26;;;;;;;2.00;0.70;;;12.20;90.30;;;;;;5055974;28;20553;-78
2022/01/04 08:38:52;;;;;;;2.20;0.80;;;12.20;90.30;;;;;;5055975;28;20431;-78
2022/01/04 08:41:19;;;;;;;2.00;0.60;;;12.20;90.50;;;;;;5060178;28;20446;-78
2022/01/04 08:43:46;;;;;;;2.60;0.80;;;12.30;89.90;;;;;;5061015;28;20482;-78
2022/01/04 08:46:13;;;;;;;2.10;0.70;;;12.30;89.40;;;;;;5058710;28;20477;-78
2022/01/04 08:48:40;;;;;;;2.70;0.80;;;12.30;89.70;;;;;;5061535;28;20446;-78
2022/01/04 08:51:08;;;;;;;2.20;0.60;;;12.40;89.60;;;;;;5063186;28;20461;-78
2022/01/04 08:53:35;;;;;;;2.00;0.60;;;12.30;89.00;;;;;;5058620;28;20446;-78
2022/01/04 08:56:04;;;;;;;2.10;0.80;;;12.40;88.90;;;;;;5059479;28;20462;-78
2022/01/04 08:58:30;;;;;;;2.10;0.70;;;12.40;88.80;;;;;;5060808;28;20675;-79
2022/01/04 09:00:57;;;;;;;2.20;0.70;;;12.40;88.10;;;;;;5060754;28;20442;-79
2022/01/04 09:03:25;;;;;;;2.10;0.63;;;12.50;88.40;;;;;;5065832;28;20478;-78
2022/01/04 09:05:52;;;;;;;2.23;0.87;;;12.60;87.30;;;;;;5059881;28;20490;-78
2022/01/04 09:08:20;;;;;;;2.10;0.70;;;12.60;86.80;;;;;;5057877;28;20500;-79
2022/01/04 09:10:48;;;;;;;2.17;0.70;;;12.70;87.00;;;;;;5058821;28;20450;-78
2022/01/04 09:13:18;;;;;;;2.00;0.60;;;12.80;86.80;;;;;;5060183;28;20451;-78
2022/01/04 09:18:43;;;;;;;2.03;0.60;;;12.80;85.90;;;;;;5064789;28;20474;-78
2022/01/04 09:18:46;;;;;;;2.20;0.80;;;12.80;86.10;;;;;;5062074;28;20437;-77
2022/01/04 09:21:14;;;;;;;2.10;0.80;;;12.70;86.40;;;;;;5056095;28;20478;-78
2022/01/04 09:23:43;;;;;;;2.10;0.70;;;12.60;86.40;;;;;;5056157;28;20544;-78
2022/01/04 09:26:10;;;;;;;2.17;0.70;;;12.60;87.00;;;;;;5057000;28;20474;-77
2022/01/04 09:28:37;;;;;;;2.00;0.60;;;12.70;86.60;;;;;;5054177;28;20442;-77
2022/01/04 09:31:04;;;;;;;2.03;0.70;;;12.80;86.90;;;;;;5054202;28;20538;-78
2022/01/04 09:33:32;;;;;;;2.03;0.67;;;12.80;86.90;;;;;;5059146;28;20450;-78
2022/01/04 09:35:59;;;;;;;2.00;0.70;;;12.80;87.20;;;;;;5055435;28;20474;-78
2022/01/04 09:38:26;;;;;;;2.83;0.80;;;12.70;87.60;;;;;;5053731;28;20447;-78
2022/01/04 09:40:55;;;;;;;2.10;0.70;;;12.70;88.30;;;;;;5054604;28;20492;-78
2022/01/04 09:43:23;;;;;;;2.10;0.77;;;12.60;88.40;;;;;;5053364;28;20510;-76
2022/01/04 09:45:50;;;;;;;2.10;0.70;;;12.60;88.80;;;;;;5053227;28;20462;-77
2022/01/04 09:48:16;;;;;;;2.10;0.77;;;12.60;89.10;;;;;;5053088;28;20438;-76
2022/01/04 09:50:43;;;;;;;2.20;0.80;;;12.60;89.30;;;;;;5053209;28;20504;-77
2022/01/04 09:53:12;;;;;;;2.40;0.80;;;12.50;89.40;;;;;;5053363;28;20446;-78
2022/01/04 09:55:42;;;;;;;2.50;0.80;;;12.60;89.30;;;;;;5053355;28;20520;-77
2022/01/04 09:58:10;;;;;;;2.20;0.70;;;12.60;89.50;;;;;;5053093;28;20442;-78
2022/01/04 10:00:37;;;;;;;2.07;0.80;;;12.60;89.40;;;;;;5053300;28;20493;-78
2022/01/04 10:03:13;;;;;;;2.33;0.83;;;12.60;89.10;;;;;;5052950;28;20535;-78
2022/01/04 10:05:40;;;;;;;2.20;0.80;;;12.50;89.30;;;;;;5052963;28;20468;-78
2022/01/04 10:08:09;;;;;;;2.20;0.80;;;12.60;90.10;;;;;;5052712;28;20875;-77
2022/01/04 10:10:36;;;;;;;2.10;0.70;;;12.60;89.70;;;;;;5057068;28;20504;-77
2022/01/04 10:13:06;;;;;;;2.77;0.70;;;12.50;90.00;;;;;;5057031;28;20496;-77
2022/01/04 10:15:38;;;;;;;2.10;0.70;;;12.40;89.50;;;;;;5176811;22;20491;-73
2022/01/04 10:18:21;;;;;;;2.17;0.80;;;12.40;89.80;;;;;;5039645;28;20424;-74
2022/01/04 10:20:52;;;;;;;2.10;0.70;;;12.40;90.40;;;;;;5038302;28;20801;-73
2022/01/04 10:23:22;;;;;;;2.20;0.90;;;12.40;90.00;;;;;;5038051;28;20721;-73
2022/01/04 10:25:49;;;;;;;2.00;0.70;;;12.40;89.70;;;;;;5037447;28;20546;-73
2022/01/04 10:28:29;;;;;;;2.20;0.80;;;12.50;89.60;;;;;;5037091;28;20942;-73
2022/01/04 10:31:00;;;;;;;2.30;0.93;;;12.50;88.20;;;;;;5038277;28;20510;-73
2022/01/04 10:33:28;;;;;;;2.40;0.90;;;12.50;88.50;;;;;;5038382;28;20438;-73
2022/01/04 10:35:56;;;;;;;2.47;1.10;;;12.60;87.90;;;;;;5038000;28;20537;-73
2022/01/04 10:38:26;;;;;;;2.43;0.87;;;12.60;86.90;;;;;;5037362;28;20447;-73
2022/01/04 10:40:59;;;;;;;2.10;0.80;;;12.70;87.60;;;;;;5036959;28;20449;-73
2022/01/04 10:43:28;;;;;;;2.70;0.70;;;12.70;85.80;;;;;;5036810;28;20514;-73
2022/01/04 10:45:58;;;;;;;2.00;0.80;;;12.80;86.30;;;;;;5036790;28;20466;-73
2022/01/04 10:48:27;;;;;;;2.30;0.80;;;12.80;84.70;;;;;;5036659;28;20448;-73
2022/01/04 10:50:56;;;;;;;2.10;0.80;;;12.90;85.10;;;;;;5036742;28;20451;-73
2022/01/04 10:53:26;;;;;;;2.30;0.90;;;12.90;84.80;;;;;;5036492;28;20447;-73
2022/01/04 10:55:56;;;;;;;2.43;0.90;;;12.90;84.70;;;;;;5036593;28;20459;-73
2022/01/04 10:58:27;;;;;;;2.20;0.87;;;12.90;84.90;;;;;;5036487;28;20446;-72
2022/01/04 11:00:57;;;;;;;2.40;0.80;;;12.90;84.90;;;;;;5036727;28;20435;-73
2022/01/04 11:03:26;;;;;;;2.83;1.20;;;12.80;84.50;;;;;;5036424;28;20467;-73
2022/01/04 11:05:58;;;;;;;2.20;0.80;;;12.70;85.60;;;;;;5036181;28;20474;-72
2022/01/04 11:08:25;;;;;;;2.00;0.70;;;12.70;85.30;;;;;;5036173;28;20534;-73
2022/01/04 11:10:53;;;;;;;2.47;1.00;;;12.80;85.60;;;;;;5036085;28;20513;-73
2022/01/04 11:13:20;;;;;;;2.10;0.70;;;12.90;85.20;;;;;;5036058;28;20544;-73
2022/01/04 11:15:47;;;;;;;2.80;1.00;;;13.00;85.00;;;;;;5035852;28;20482;-74
2022/01/04 11:18:15;;;;;;;2.10;0.80;;;13.00;85.30;;;;;;5036006;28;20443;-74
2022/01/04 11:20:42;;;;;;;2.10;0.80;;;13.00;85.30;;;;;;5034349;28;21007;-74
2022/01/04 11:23:09;;;;;;;2.20;1.00;;;13.00;84.50;;;;;;5035870;28;20590;-74
2022/01/04 11:25:37;;;;;;;2.27;0.90;;;12.90;84.80;;;;;;5035471;28;20979;-74
2022/01/04 11:28:06;;;;;;;2.40;1.00;;;12.90;85.30;;;;;;5035781;28;20447;-74
2022/01/04 11:30:40;;;;;;;2.10;0.73;;;12.80;85.80;;;;;;5035701;28;20485;-74
2022/01/04 11:33:15;;;;;;;2.53;0.83;;;12.80;86.40;;;;;;5035848;28;20842;-74
2022/01/04 11:35:43;;;;;;;2.33;0.90;;;12.70;86.40;;;;;;5035651;28;20467;-74
2022/01/04 11:38:10;;;;;;;2.20;0.80;;;12.70;87.00;;;;;;5035342;28;20459;-74
2022/01/04 11:40:41;;;;;;;2.10;0.80;;;12.70;86.70;;;;;;5035506;28;20453;-74
2022/01/04 11:43:25;;;;;;;2.20;0.97;;;12.80;86.90;;;;;;5035498;28;20517;-74
2022/01/04 11:45:52;;;;;;;2.23;0.93;;;12.80;87.20;;;;;;5035405;28;20502;-74
2022/01/04 11:48:30;;;;;;;2.20;0.87;;;12.80;87.40;;;;;;5035412;28;20443;-74
2022/01/04 11:51:00;;;;;;;2.13;0.80;;;12.80;87.10;;;;;;5035418;28;20525;-74
2022/01/04 11:53:27;;;;;;;2.53;1.07;;;12.90;87.20;;;;;;5034997;28;20474;-74
2022/01/04 11:55:57;;;;;;;2.63;0.97;;;12.70;87.70;;;;;;5035235;28;20470;-74
2022/01/04 11:58:26;;;;;;;2.47;0.90;;;12.70;88.00;;;;;;5034916;28;20930;-74
2022/01/04 12:01:04;;;;;;;2.30;1.00;;;12.70;88.10;;;;;;5035230;28;20448;-74
2022/01/04 12:03:42;;;;;;;2.43;1.00;;;12.70;88.20;;;;;;5035456;28;20573;-74
2022/01/04 12:06:11;;;;;;;2.20;0.90;;;12.80;87.90;;;;;;5035813;28;20482;-74
2022/01/04 12:08:41;;;;;;;2.20;0.80;;;12.70;87.40;;;;;;5035439;28;20458;-74
2022/01/04 12:11:40;;;;;;;2.20;0.80;;;12.50;87.70;;;;;;5035436;28;20459;-74
2022/01/04 12:14:23;;;;;;;2.10;0.80;;;12.60;88.50;;;;;;5035511;28;20428;-74
2022/01/04 12:17:01;;;;;;;2.80;0.90;;;12.70;88.10;;;;;;5035043;28;20529;-74
2022/01/04 12:19:47;;;;;;;2.67;1.03;;;12.70;88.20;;;;;;5035222;28;20447;-74
2022/01/04 12:22:30;;;;;;;2.60;1.03;;;12.60;88.20;;;;;;5035275;28;20439;-74
2022/01/04 12:25:04;;;;;;;2.60;0.90;;;12.70;88.00;;;;;;5035629;28;20506;-74
2022/01/04 12:27:31;;;;;;;2.50;0.80;;;12.60;87.90;;;;;;5035959;28;20431;-74
2022/01/04 12:30:25;;;;;;;2.20;0.80;;;12.70;88.20;;;;;;5035070;28;20462;-75
2022/01/04 12:32:52;;;;;;;2.30;0.80;;;12.60;88.30;;;;;;5035621;28;20851;-74
2022/01/04 12:35:19;;;;;;;2.07;0.83;;;12.50;88.10;;;;;;5035063;28;20459;-74
2022/01/04 12:37:47;;;;;;;2.43;0.80;;;12.40;88.50;;;;;;5035149;28;20439;-74
2022/01/04 12:40:14;;;;;;;2.60;0.90;;;12.50;88.80;;;;;;5034769;28;20478;-74
2022/01/04 12:42:42;;;;;;;2.63;0.93;;;12.60;88.30;;;;;;5035164;28;20451;-74
2022/01/04 12:45:12;;;;;;;2.43;1.23;;;12.50;88.20;;;;;;5035221;28;20459;-74
2022/01/04 12:47:39;;;;;;;2.23;0.97;;;12.40;89.30;;;;;;5034774;28;20800;-74
2022/01/04 12:50:07;;;;;;;2.30;0.80;;;12.30;89.30;;;;;;5034607;28;20955;-75
2022/01/04 12:52:34;;;;;;;2.10;0.70;;;12.30;89.80;;;;;;5034986;28;20463;-74
2022/01/04 12:55:10;;;;;;;2.23;0.97;;;12.30;89.70;;;;;;5034539;28;20998;-74
2022/01/04 12:57:37;;;;;;;2.23;0.80;;;12.20;89.90;;;;;;5034563;28;20423;-75
2022/01/04 13:00:08;;;;;;;2.40;1.20;;;12.40;90.10;;;;;;5034765;28;20448;-75
2022/01/04 13:02:34;;;;;;;2.20;0.90;;;12.40;90.30;;;;;;5035544;28;20435;-75
2022/01/04 13:05:05;;;;;;;2.30;1.07;;;12.50;89.70;;;;;;5034583;28;20917;-75
2022/01/04 13:07:33;;;;;;;2.23;1.00;;;12.50;89.90;;;;;;5034506;28;20906;-75
2022/01/04 13:10:07;;;;;;;2.83;1.20;;;12.50;89.50;;;;;;5034546;28;20443;-75
2022/01/04 13:12:36;;;;;;;2.10;0.90;;;12.50;89.90;;;;;;5034719;28;20542;-75
2022/01/04 13:15:05;;;;;;;2.20;1.00;;;12.50;89.60;;;;;;5033983;28;20483;-75
2022/01/04 13:17:32;;;;;;;2.30;0.97;;;12.40;90.40;;;;;;5034036;28;20448;-75
2022/01/04 13:19:59;;;;;;;2.27;0.93;;;12.50;90.50;;;;;;5034693;28;20486;-75
2022/01/04 13:22:28;;;;;;;2.20;0.87;;;12.40;90.50;;;;;;5034121;28;20522;-75
2022/01/04 13:24:58;;;;;;;2.20;0.97;;;12.50;90.10;;;;;;5033873;28;20872;-74
2022/01/04 13:27:31;;;;;;;2.50;0.80;;;12.60;90.10;;;;;;5034501;28;20443;-75
2022/01/04 13:29:59;;;;;;;2.87;1.00;;;12.60;89.90;;;;;;5034857;28;20432;-75
2022/01/04 13:32:28;;;;;;;2.20;0.90;;;12.80;89.90;;;;;;5034101;28;20502;-75
2022/01/04 13:35:02;;;;;;;2.43;0.90;;;12.90;89.30;;;;;;5034271;28;20474;-75
2022/01/04 13:37:30;;;;;;;2.10;0.90;;;12.90;88.90;;;;;;5034811;28;20436;-75
2022/01/04 13:39:57;;;;;;;2.20;0.90;;;12.80;88.40;;;;;;5033690;28;20943;-74
2022/01/04 13:42:36;;;;;;;2.10;0.80;;;12.80;89.00;;;;;;5034031;28;20455;-75
2022/01/04 13:45:09;;;;;;;2.03;0.70;;;12.80;89.00;;;;;;5033279;28;20930;-75
2022/01/04 13:47:38;;;;;;;2.67;1.20;;;12.80;88.60;;;;;;5034542;28;20470;-75
2022/01/04 13:50:31;;;;;;;2.60;1.00;;;12.70;89.10;;;;;;5034809;28;20444;-75
2022/01/04 13:53:05;;;;;;;2.20;0.90;;;12.60;89.70;;;;;;5031536;28;20454;-75
2022/01/04 13:55:58;;;;;;;2.37;1.00;;;12.70;89.50;;;;;;5033812;28;20463;-75
2022/01/04 13:58:51;;;;;;;2.40;0.80;;;12.60;89.70;;;;;;5034137;28;20443;-75
2022/01/04 14:01:23;;;;;;;2.13;0.77;;;12.70;90.00;;;;;;5034823;28;20432;-75
2022/01/04 14:03:52;;;;;;;2.40;0.90;;;12.80;89.50;;;;;;5034624;28;20483;-75
2022/01/04 14:06:37;;;;;;;2.23;0.90;;;12.90;89.30;;;;;;5035049;28;20467;-75
2022/01/04 14:09:06;;;;;;;2.50;0.90;;;12.90;88.90;;;;;;5034206;28;20486;-75
2022/01/04 14:11:39;;;;;;;2.43;1.00;;;13.00;89.10;;;;;;5034311;28;20526;-75
2022/01/04 14:14:10;;;;;;;2.27;0.87;;;13.10;88.30;;;;;;5033637;28;20451;-75
2022/01/04 14:16:45;;;;;;;2.20;0.90;;;13.00;88.30;;;;;;5033852;28;20537;-75
2022/01/04 14:19:13;;;;;;;2.20;0.90;;;12.90;88.90;;;;;;5034180;28;21008;-74
2022/01/04 14:21:43;;;;;;;2.47;0.90;;;12.90;89.10;;;;;;5034805;28;20454;-75
2022/01/04 14:24:33;;;;;;;2.30;1.00;;;12.80;88.90;;;;;;5033826;28;20487;-76
2022/01/04 14:27:01;;;;;;;2.23;0.90;;;12.80;89.30;;;;;;5033669;28;20455;-76
2022/01/04 14:29:30;;;;;;;2.50;1.10;;;12.90;89.40;;;;;;5033734;28;20431;-76
2022/01/04 14:31:58;;;;;;;2.07;0.67;;;12.90;89.10;;;;;;5033207;28;20947;-76
2022/01/04 14:34:25;;;;;;;2.20;0.80;;;12.80;85.60;;;;;;5033632;28;20861;-75
2022/01/04 14:36:52;;;;;;;2.03;0.67;;;12.60;82.20;;;;;;5033656;28;20451;-75
2022/01/04 14:39:18;;;;;;;2.00;0.70;;;12.00;81.80;;;;;;5034105;28;20452;-71
2022/01/04 14:41:45;;;;;;;2.07;0.70;;;11.60;83.10;;;;;;5032811;28;20935;-70
2022/01/04 14:44:12;;;;;;;2.00;0.60;;;11.40;85.00;;;;;;5032693;28;20858;-69
2022/01/04 14:46:40;;;;;;;2.00;0.60;;;11.30;83.50;;;;;;5032921;28;20490;-70
2022/01/04 14:49:07;;;;;;;1.97;0.60;;;11.10;83.80;;;;;;5033098;28;20820;-70
2022/01/04 14:51:33;;;;;;;2.40;0.70;;;11.00;83.10;;;;;;5032967;28;20459;-69
2022/01/04 14:54:00;;;;;;;2.00;0.60;;;10.90;83.00;;;;;;5032972;28;20946;-73
2022/01/04 14:56:27;;;;;;;2.10;0.70;;;10.90;83.60;;;;;;5037035;28;20470;-73
2022/01/04 14:58:54;;;;;;;2.03;0.63;;;10.60;82.40;;;;;;5037122;28;21024;-72
2022/01/04 15:01:20;;;;;;;2.00;0.70;;;10.40;82.90;;;;;;5037365;28;20486;-72
2022/01/04 15:03:48;;;;;;;2.40;0.90;;;10.30;83.90;;;;;;5036100;28;20475;-72
2022/01/04 15:06:15;;;;;;;2.00;0.60;;;10.20;84.10;;;;;;5036593;28;20517;-72
2022/01/04 15:08:42;;;;;;;2.10;0.70;;;9.90;84.60;;;;;;5036299;28;20436;-71
2022/01/04 15:11:09;;;;;;;2.00;0.60;;;9.80;84.40;;;;;;5036772;28;20444;-72
2022/01/04 15:13:35;;;;;;;2.00;0.60;;;9.70;84.90;;;;;;5036982;28;20447;-71
2022/01/04 15:16:02;;;;;;;2.20;0.70;;;9.70;85.00;;;;;;5036356;28;20483;-71
2022/01/04 15:18:29;;;;;;;2.03;0.67;;;9.50;84.60;;;;;;5036246;28;20882;-72
2022/01/04 15:20:57;;;;;;;2.50;0.83;;;9.40;85.40;;;;;;5036102;28;20454;-71
2022/01/04 15:23:24;;;;;;;2.00;0.60;;;9.40;85.50;;;;;;5036062;28;20451;-70
2022/01/04 15:25:53;;;;;;;2.00;0.70;;;9.30;85.80;;;;;;5036672;28;20487;-71
2022/01/04 15:28:20;;;;;;;2.07;0.73;;;9.20;85.30;;;;;;5036688;28;20455;-71
2022/01/04 15:30:47;;;;;;;2.10;0.70;;;9.10;85.30;;;;;;5035874;28;20447;-71
2022/01/04 15:33:16;;;;;;;2.10;0.70;;;8.90;85.30;;;;;;5036063;28;20459;-71
2022/01/04 15:35:43;;;;;;;2.00;0.70;;;8.80;85.60;;;;;;5036095;28;20517;-71
2022/01/04 15:38:11;;;;;;;2.30;0.80;;;8.90;85.40;;;;;;5036017;28;20451;-69
2022/01/04 15:40:39;;;;;;;2.20;0.80;;;8.80;85.10;;;;;;5036173;28;20448;-71
2022/01/04 15:43:07;;;;;;;2.00;0.70;;;8.90;85.40;;;;;;5036096;28;20480;-71
2022/01/04 15:45:34;;;;;;;2.13;0.80;;;8.80;84.70;;;;;;5036058;28;20495;-72
2022/01/04 15:48:01;;;;;;;2.20;0.80;;;8.80;84.90;;;;;;5035931;28;20451;-72
2022/01/04 15:50:28;;;;;;;2.00;0.70;;;8.80;84.70;;;;;;5035756;28;20455;-71
2022/01/04 15:52:55;;;;;;;2.10;0.80;;;8.90;84.60;;;;;;5036377;28;20455;-73
2022/01/04 15:55:24;;;;;;;2.10;0.70;;;9.00;84.50;;;;;;5035539;28;20467;-72
2022/01/04 15:57:52;;;;;;;2.00;0.70;;;8.90;84.20;;;;;;5035328;28;20454;-72
2022/01/04 16:00:20;;;;;;;2.00;0.70;;;8.80;84.50;;;;;;5035280;28;20451;-72
2022/01/04 16:02:47;;;;;;;2.83;0.90;;;8.80;84.80;;;;;;5035296;28;20451;-73
2022/01/04 16:05:15;;;;;;;2.30;0.80;;;8.70;85.00;;;;;;5035214;28;20491;-71
2022/01/04 16:07:41;;;;;;;2.00;0.70;;;8.50;85.80;;;;;;5035345;28;20458;-74
2022/01/04 16:10:10;;;;;;;2.10;0.70;;;8.50;85.50;;;;;;5036474;28;20513;-73
2022/01/04 16:12:38;;;;;;;2.50;0.87;;;8.60;85.40;;;;;;5036124;28;20489;-74
2022/01/04 16:17:40;;;;;;;2.10;0.80;;;8.50;85.00;;;;;;4974659;28;20477;-73
2022/01/04 16:22:54;;;;;;;2.10;0.80;;;8.40;84.40;;;;;;4975480;28;20409;-74
2022/01/04 16:25:21;;;;;;;2.20;0.80;;;8.30;85.40;;;;;;4975559;28;20496;-74
2022/01/04 16:27:49;;;;;;;2.00;0.70;;;8.30;85.10;;;;;;4975501;28;20549;-73
2022/01/04 16:30:16;;;;;;;2.00;0.70;;;8.40;85.10;;;;;;4975551;28;20921;-74
2022/01/04 16:32:43;;;;;;;2.40;1.10;;;8.60;84.30;;;;;;4975444;28;20452;-74
2022/01/04 16:35:10;;;;;;;2.10;0.70;;;8.60;83.80;;;;;;4975296;28;20465;-74
2022/01/04 16:37:37;;;;;;;2.20;0.87;;;8.50;83.70;;;;;;4975349;28;20684;-74
2022/01/04 16:40:09;;;;;;;2.10;0.80;;;8.70;83.60;;;;;;4975284;28;20446;-74
2022/01/04 16:42:36;;;;;;;2.20;0.70;;;8.70;83.10;;;;;;4975331;28;20529;-75
2022/01/04 16:45:05;;;;;;;2.20;0.80;;;8.70;82.30;;;;;;4975090;28;20552;-74
2022/01/04 16:47:33;;;;;;;2.30;0.80;;;8.60;81.90;;;;;;4974864;28;20993;-74
2022/01/04 16:50:00;;;;;;;2.07;0.70;;;8.70;82.00;;;;;;4975246;28;20454;-74
2022/01/04 16:52:27;;;;;;;2.17;0.87;;;8.60;81.40;;;;;;4975068;28;20450;-75
2022/01/04 16:54:55;;;;;;;2.00;0.70;;;8.60;81.90;;;;;;4975056;28;20493;-75
2022/01/04 16:57:22;;;;;;;2.00;0.60;;;8.70;81.80;;;;;;4974926;28;20516;-75
2022/01/04 16:59:49;;;;;;;2.20;0.60;;;8.80;81.40;;;;;;4974802;28;20457;-74
2022/01/04 17:02:17;;;;;;;1.97;0.67;;;8.70;80.60;;;;;;4974897;28;20454;-74
2022/01/04 17:04:43;;;;;;;2.30;0.80;;;8.60;80.30;;;;;;4974756;28;20537;-74